x

Big Carlos Pass, Fl (bgcf1) Weather Station

1:54pm - Thu 17th Apr 2014 All times are EDT. -4 hours from GMT.

  • Wind
    6mph, 10mph gusts
  • Air Temp 86°f
  • Sea Pressure 1019.1mb
  • Big Carlos Pass, Fl
  • Big Carlos Pass, Fl

More Historic Weather Station data

Upgrade to MSW Pro to gain access to the past 30 days of data for over 8000 Wavebouys and Weather Stations around the globe.

Join Pro

Comparision Forecast

View Surf forecast
   
Thu 04/17 1:54pm 6 10 mph 1019.1mb 86f
1:48pm 8 11 mph 1019.2mb 86f
12:54pm 6 8 mph 1020mb 84f
12:48pm 6 9 mph 1020mb 84f
11:54am 9 13 mph 1020.7mb 82f
11:48am 10 14 mph 1020.7mb 82f
10:54am 8 13 mph 1020.8mb 80f
10:48am 9 11 mph 1020.7mb 80f
9:54am 10 14 mph 1020.5mb 77f
9:48am 10 14 mph 1020.4mb 77f
8:54am 8 11 mph 1020mb 74f
8:48am 7 14 mph 1019.9mb 73f
7:54am 9 11 mph 1019.9mb 70f
7:48am 9 10 mph 1019.8mb 70f
6:54am 7 8 mph 1019.2mb 70f
6:48am 6 8 mph 1019.3mb 70f
5:54am 8 9 mph 1018.5mb 70f
5:48am 8 10 mph 1018.5mb 70f
4:54am 8 10 mph 1018.2mb 70f
4:48am 8 9 mph 1018.1mb 70f
3:54am 10 13 mph 1017.9mb 70f
3:48am 11 13 mph 1018mb 70f
2:54am 11 13 mph 1018.3mb 71f
2:48am 11 15 mph 1018.2mb 71f
1:54am 13 16 mph 1018.3mb 71f
1:48am 10 14 mph 1018.5mb 72f
12:54am 10 14 mph 1019.1mb 72f
12:48am 9 13 mph 1019.2mb 72f
Wed 04/16 11:54pm 13 17 mph 1019.1mb 73f
11:48pm 13 20 mph 1019.1mb 73f
10:54pm 15 21 mph 1018.8mb 74f
10:48pm 15 22 mph 1018.8mb 74f
9:54pm 14 20 mph 1018.6mb 74f
9:48pm 14 20 mph 1018.5mb 75f
8:54pm 11 16 mph 1017.9mb 75f
8:48pm 10 15 mph 1017.9mb 75f
7:54pm 14 18 mph 1017.2mb 76f
7:48pm 11 18 mph 1017.2mb 76f
6:54pm 11 16 mph 1016.8mb 77f
6:48pm 11 17 mph 1016.7mb 77f
5:54pm 13 17 mph 1016.5mb 77f
5:48pm 13 18 mph 1016.5mb 77f
4:54pm 13 15 mph 1016.4mb 76f
4:48pm 11 16 mph 1016.5mb 76f
3:54pm 11 16 mph 1017.2mb 74f
3:48pm 11 16 mph 1017.3mb 74f
2:54pm 10 14 mph 1017.8mb 72f
2:48pm 10 17 mph 1017.8mb 72f
1:54pm 13 18 mph 1018.2mb 70f
1:48pm 14 21 mph 1018.2mb 70f
12:54pm 11 14 mph 1018.6mb 69f
12:48pm 11 15 mph 1018.6mb 69f
11:54am 14 17 mph 1019.2mb 67f
11:48am 13 18 mph 1019.2mb 67f
10:54am 17 22 mph 1018.5mb 65f
10:48am 17 21 mph 1018.4mb 65f
9:54am 20 23 mph 1017.8mb 65f
9:48am 17 21 mph 1017.8mb 65f
8:54am 15 18 mph 1017.4mb 66f
8:48am 16 18 mph 1017.2mb 66f
7:54am 17 22 mph 1016.8mb 65f
7:48am 17 20 mph 1016.7mb 66f
6:54am 16 18 mph 1016.2mb 67f
6:48am 14 16 mph 1016.1mb 67f
5:54am 14 16 mph 1015.9mb 67f
5:48am 14 17 mph 1015.8mb 67f
4:54am 14 16 mph 1014.9mb 69f
4:48am 14 17 mph 1014.9mb 69f
3:54am 10 13 mph 1014.8mb 70f
3:48am 11 15 mph 1014.7mb 70f
2:54am 11 13 mph 1014.5mb 71f
2:48am 11 15 mph 1014.5mb 71f
1:54am 8 10 mph 1014.5mb 72f
1:48am 9 11 mph 1014.5mb 72f
12:54am 10 13 mph 1014.8mb 72f
12:48am 13 15 mph 1014.8mb 72f
Tue 04/15 11:54pm 15 20 mph 1014.4mb 71f
11:48pm 16 20 mph 1014.3mb 72f
10:54pm 10 14 mph 1014.3mb 73f
10:48pm 13 17 mph 1014.3mb 73f
9:54pm 8 13 mph 1013.8mb 76f
9:48pm 8 14 mph 1013.8mb 76f
8:54pm 14 17 mph 1012.8mb 77f
8:48pm 14 17 mph 1012.7mb 77f
7:54pm 15 17 mph 1011.8mb 77f
7:48pm 14 16 mph 1011.7mb 77f
4:54pm 14 16 mph 1012mb 78f
4:48pm 14 16 mph 1012mb 78f
3:54pm 15 17 mph 1012.3mb 78f
3:48pm 14 18 mph 1012.3mb 78f
2:54pm 15 18 mph 1012.6mb 78f
2:48pm 14 18 mph 1012.6mb 78f
1:54pm 15 18 mph 1013mb 79f
1:48pm 15 18 mph 1013.1mb 79f
12:54pm 14 17 mph 1013.3mb 79f
12:48pm 14 17 mph 1013.3mb 79f
11:54am 17 22 mph 1013.3mb 79f
11:48am 17 23 mph 1013.2mb 79f
10:54am 16 21 mph 1013.2mb 79f
10:48am 14 18 mph 1013.3mb 79f
9:54am 11 16 mph 1013.4mb 78f
9:48am 13 20 mph 1013.4mb 78f
8:54am 7 10 mph 1013.4mb 77f
8:48am 7 10 mph 1013.5mb 76f
7:54am 8 13 mph 1013.4mb 75f
7:48am 7 9 mph 1013.3mb 74f
6:54am 7 9 mph 1012.8mb 74f
6:48am 7 10 mph 1012.7mb 74f
5:54am 8 10 mph 1012.6mb 73f
5:48am 8 10 mph 1012.6mb 73f
4:54am 8 10 mph 1012.8mb 74f
4:48am 8 9 mph 1012.7mb 74f
3:54am 7 10 mph 1012.8mb 74f
3:48am 7 9 mph 1012.8mb 74f
2:54am 7 8 mph 1012.6mb 74f
2:48am 6 9 mph 1012.6mb 74f
1:54am 5 6 mph 1012.8mb 74f
1:48am 6 7 mph 1012.9mb 74f
12:54am 5 7 mph 1013.4mb 75f
12:48am 5 7 mph 1013.4mb 75f
Mon 04/14 11:54pm 6 8 mph 1013.4mb 76f
11:48pm 6 8 mph 1013.4mb 76f
10:54pm 5 7 mph 1013.5mb 76f
10:48pm 6 7 mph 1013.5mb 76f
9:54pm 6 7 mph 1013.4mb 76f
9:48pm 5 7 mph 1013.4mb 76f
8:54pm 5 6 mph 1013.2mb 76f
8:48pm 6
mph
1013.1mb 77f
7:54pm 6 7 mph 1012.9mb 77f
7:48pm 6 7 mph 1012.9mb 77f
6:54pm 8 9 mph 1013.2mb 78f